FYKT

Keetmanshoop Airport

Keetmanshoop, Namibia
METAR FYKT 251800Z 22010KT CAVOK 21/M04 Q1018
Observed Flight Rules
Sep-25 @ 18:00 UTC (an hour ago) Visual Flight Rules
Wind Visibility Clouds
220° at 10 knots 10,000+ meters
  • Clear skies
Temperatures Readings
Current 21°C / 70°F
Dewpoint -4°C / 25°F
Humidity 18%
Altimeter 30.06" Hg
Pressure 1018 hPa
Elevation 1061
METAR FYKT 251800Z 22010KT CAVOK 21/M04 Q1018
Observed Flight Rules
Sep-25 @ 18:00 UTC
(an hour ago)
VFR
Wind Visibility
220° at 10 knots 10,000+ meters
Clouds
  • Clear skies
Temperature Dewpoint
21°C / 70°F -4°C / 25°F
Humidity Altimeter Pressure
18% 30.06" Hg 1018 hPa